Flight Track Log - Related Links

Times and Time Zones

All times are in EDT time to prevent confusion due to time zone crossing. See the SWA3960 flight status page for this flight to view local times or setup timezone preferences in your user account.

Time Position Orientation Groundspeed Altitude Reporting Facility
EDT Latitude Longitude Course Direction KTS MPH feet Rate Location/Type
Sat 03:23:38 PM 30.4950 -81.7114 321° Northwest 171 197 800  Level Jacksonville Center
Sat 03:23:54 PM 30.5075 -81.7231 294° West 169 194 1,300 2,093 Climbing Jacksonville Center
Sat 03:24:21 PM 30.5264 -81.7422 319° Northwest 216 249 2,300 2,400 Climbing Jacksonville Center
Sat 03:24:54 PM 30.5581 -81.7683 325° Northwest 232 267 3,700 2,774 Climbing Jacksonville Center
Sat 03:25:54 PM 30.6106 -81.8064 328° Northwest 273 314 6,600 3,100 Climbing Jacksonville Center
Sat 03:26:54 PM 30.6736 -81.8539 327° Northwest 273 314 9,900 2,400 Climbing Jacksonville Center
Sat 03:27:54 PM 30.7450 -81.9089 326° Northwest 291 335 11,400 2,200 Climbing Jacksonville Center
Sat 03:28:54 PM 30.8247 -81.9683 327° Northwest 322 371 14,300 2,600 Climbing Jacksonville Center
Sat 03:29:54 PM 30.9089 -82.0306 328° Northwest 340 391 16,600 2,000 Climbing Jacksonville Center
Sat 03:30:54 PM 30.9906 -82.1025 323° Northwest 360 414 18,300 2,200 Climbing Jacksonville Center
Sat 03:31:54 PM 31.0767 -82.1747 324° Northwest 366 421 21,000 2,300 Climbing Jacksonville Center
Sat 03:32:54 PM 31.1606 -82.2467 324° Northwest 371 427 22,900 1,700 Climbing Jacksonville Center
Sat 03:33:54 PM 31.2444 -82.3192 324° Northwest 371 427 24,400 1,800 Climbing Jacksonville Center
Sat 03:34:54 PM 31.3325 -82.3917 325° Northwest 376 433 26,500 2,100 Climbing Jacksonville Center
Sat 03:35:54 PM 31.4164 -82.4642 324° Northwest 381 438 28,600 1,990 Climbing Jacksonville Center
Sat 03:38:10 PM 31.6050 -82.6272 324° Northwest 358 412 33,000 1,347 Climbing Atlanta Center
Sat 03:39:10 PM 31.6808 -82.6967 322° Northwest 350 403 33,000  Level Atlanta Center
Sat 03:40:10 PM 31.7608 -82.7639 324° Northwest 350 403 33,000  Level Atlanta Center
Sat 03:41:10 PM 31.8347 -82.8311 322° Northwest 350 403 33,000  Level Atlanta Center
Sat 03:42:10 PM 31.9144 -82.8986 324° Northwest 350 403 33,000 500 Level Atlanta Center
Sat 03:43:10 PM 31.9944 -82.9664 324° Northwest 350 403 34,000 500 Climbing Atlanta Center
Sat 03:44:10 PM 32.0703 -83.0339 323° Northwest 350 403 34,000  Level Atlanta Center
Sat 03:45:10 PM 32.1458 -83.1017 323° Northwest 350 403 34,000  Level Atlanta Center
Sat 03:46:10 PM 32.2256 -83.1722 323° Northwest 350 403 34,000  Level Atlanta Center
Sat 03:47:10 PM 32.3014 -83.2378 324° Northwest 350 403 34,000  Level Atlanta Center
Sat 03:48:10 PM 32.3769 -83.3058 323° Northwest 350 403 34,000  Level Atlanta Center
Sat 03:49:10 PM 32.4544 -83.3742 323° Northwest 350 403 34,000  Level Atlanta Center
Sat 03:50:10 PM 32.5300 -83.4425 323° Northwest 350 403 34,000  Level Atlanta Center
Sat 03:51:10 PM 32.6056 -83.5111 323° Northwest 350 403 34,000  Level Atlanta Center
Sat 03:52:10 PM 32.6808 -83.5775 323° Northwest 350 403 34,000  Level Atlanta Center
Sat 03:53:10 PM 32.7583 -83.6461 323° Northwest 350 403 34,000  Level Atlanta Center
Sat 03:54:10 PM 32.8336 -83.7150 322° Northwest 350 403 34,000  Level Atlanta Center
Sat 03:55:10 PM 32.9111 -83.7839 323° Northwest 350 403 34,000  Level Atlanta Center
Sat 03:56:10 PM 32.9864 -83.8531 322° Northwest 350 403 34,000  Level Atlanta Center
Sat 03:57:10 PM 33.0489 -83.9100 323° Northwest 350 403 34,000  Level Atlanta Center
Sat 03:58:10 PM 33.1367 -83.9942 321° Northwest 345 397 34,000  Level Atlanta Center
Sat 03:59:10 PM 33.2119 -84.0611 323° Northwest 345 397 34,000  Level Atlanta Center
Sat 04:00:10 PM 33.2892 -84.1283 324° Northwest 345 397 34,000  Level Atlanta Center
Sat 04:01:10 PM 33.3642 -84.1981 322° Northwest 345 397 34,000  Level Atlanta Center
Sat 04:02:10 PM 33.4372 -84.2678 321° Northwest 345 397 34,000  Level Atlanta Center
Sat 04:03:10 PM 33.5142 -84.3353 324° Northwest 345 397 34,000  Level Atlanta Center
Sat 04:04:10 PM 33.5808 -84.3953 323° Northwest 345 397 34,000  Level Atlanta Center
Sat 04:05:10 PM 33.6619 -84.4556 328° Northwest 345 397 34,000  Level Atlanta Center
Sat 04:06:10 PM 33.7536 -84.4986 339° North 346 398 34,000  Level Atlanta Center
Sat 04:07:10 PM 33.8600 -84.5492 338° Northwest 358 412 34,000  Level Atlanta Center
Sat 04:08:10 PM 33.9536 -84.5897 340° North 358 412 34,000  Level Atlanta Center
Sat 04:09:10 PM 34.0411 -84.6406 334° Northwest 353 406 34,000  Level Atlanta Center
Sat 04:10:10 PM 34.1264 -84.6911 334° Northwest 348 400 34,000  Level Atlanta Center
Sat 04:11:10 PM 34.2158 -84.7447 334° Northwest 353 406 34,000  Level Atlanta Center
Sat 04:12:10 PM 34.3053 -84.7983 334° Northwest 353 406 34,000  Level Atlanta Center
Sat 04:13:10 PM 34.3822 -84.8442 334° Northwest 347 399 34,000  Level Atlanta Center
Sat 04:14:10 PM 34.4675 -84.8981 332° Northwest 347 399 34,000  Level Atlanta Center
Sat 04:15:10 PM 34.5569 -84.9519 334° Northwest 347 399 34,000 -350 Level Atlanta Center
Sat 04:16:10 PM 34.6442 -85.0058 333° Northwest 346 398 33,300 -950 Descending Atlanta Center
Sat 04:17:10 PM 34.7269 -85.0725 327° Northwest 335 386 32,100 -1,050 Descending Atlanta Center
Sat 04:18:10 PM 34.8100 -85.1367 328° Northwest 340 391 31,200 -900 Descending Atlanta Center
Sat 04:19:10 PM 34.8969 -85.2061 327° Northwest 360 414 30,300 -950 Descending Atlanta Center
Sat 04:20:10 PM 34.9839 -85.2733 328° Northwest 365 420 29,300 -900 Descending Atlanta Center
Sat 04:21:10 PM 35.0625 -85.3328 328° Northwest 365 420 28,500 -1,470 Descending Atlanta Center
Sat 04:22:41 PM 35.1906 -85.4467 324° Northwest 371 427 25,600 -1,765 Descending Memphis Center
Sat 04:23:43 PM 35.2561 -85.5333 313° West 351 404 24,000 -774 Descending Memphis Center
Sat 04:24:45 PM 35.3192 -85.6119 315° West 330 380 24,000  Level Memphis Center
Sat 04:25:46 PM 35.3883 -85.7008 314° West 349 402 24,000 -683 Level Memphis Center
Sat 04:26:48 PM 35.4575 -85.7894 314° West 354 407 22,600 -1,984 Descending Memphis Center
Sat 04:27:50 PM 35.5383 -85.8944 313° West 354 407 19,900 -2,226 Descending Memphis Center
Sat 04:28:52 PM 35.6019 -85.9792 313° West 342 394 18,000 -2,081 Descending Memphis Center
Sat 04:29:54 PM 35.6622 -86.0586 313° West 342 394 15,600 -2,371 Descending Memphis Center
Sat 04:30:56 PM 35.7381 -86.1617 312° West 345 397 13,100 -2,226 Descending Memphis Center
Sat 04:31:58 PM 35.8006 -86.2453 313° West 335 386 11,000 -1,463 Descending Memphis Center
Sat 04:32:59 PM 35.8619 -86.3236 314° West 321 369 10,100 -1,024 Descending Memphis Center
Sat 04:34:01 PM 35.9158 -86.3942 313° West 288 331 8,900 -1,258 Descending Memphis Center
Sat 04:35:03 PM 35.9681 -86.4639 313° West 278 320 7,500 -1,258 Descending Memphis Center
Sat 04:36:05 PM 36.0192 -86.5308 313° West 272 313 6,300 -1,065 Descending Memphis Center
Sat 04:37:07 PM 36.0742 -86.5756 327° Northwest 256 295 5,300 -919 Descending Memphis Center
Sat 04:38:09 PM 36.1350 -86.5497 19° North 235 270 4,400 -1,210 Descending Memphis Center
Sat 04:39:11 PM 36.2022 -86.5389 North 223 257 2,800 -1,220 Descending Memphis Center
Sat 04:40:12 PM 36.2147 -86.6067 283° West 207 238 1,900 -585 Descending Memphis Center
Sat 04:41:14 PM 36.1811 -86.6403 219° Southwest 171 197 1,600 -532 Descending Memphis Center
Sat 04:42:16 PM 36.1442 -86.6550 198° South 149 171 800 -435 Descending Memphis Center
Sat 04:43:18 PM 36.1086 -86.6694 198° South 147 169 700 -97 Descending Memphis Center

Login

Don't have an account? Register now (free) for customized features, flight alerts, and more!